sensor_id;sensor_type;location;lat;lon;timestamp;P1;durP1;ratioP1;P2;durP2;ratioP2
53666;SDS011;39568;51.026;5.468;2023-08-31T00:01:17;3.30;;;3.03;;
53666;SDS011;39568;51.026;5.468;2023-08-31T00:03:44;6.03;;;3.58;;
53666;SDS011;39568;51.026;5.468;2023-08-31T00:06:11;3.60;;;3.30;;
53666;SDS011;39568;51.026;5.468;2023-08-31T00:08:38;6.35;;;3.42;;
53666;SDS011;39568;51.026;5.468;2023-08-31T00:11:04;4.47;;;3.60;;
53666;SDS011;39568;51.026;5.468;2023-08-31T00:13:32;3.58;;;3.28;;
53666;SDS011;39568;51.026;5.468;2023-08-31T00:15:59;4.28;;;3.97;;
53666;SDS011;39568;51.026;5.468;2023-08-31T00:18:26;9.65;;;3.20;;
53666;SDS011;39568;51.026;5.468;2023-08-31T00:20:53;3.50;;;3.00;;
53666;SDS011;39568;51.026;5.468;2023-08-31T00:23:20;4.22;;;3.08;;
53666;SDS011;39568;51.026;5.468;2023-08-31T00:25:47;3.63;;;3.38;;
53666;SDS011;39568;51.026;5.468;2023-08-31T00:28:14;6.55;;;4.10;;
53666;SDS011;39568;51.026;5.468;2023-08-31T00:30:44;3.22;;;2.97;;
53666;SDS011;39568;51.026;5.468;2023-08-31T00:33:11;4.30;;;3.28;;
53666;SDS011;39568;51.026;5.468;2023-08-31T00:35:38;5.95;;;3.97;;
53666;SDS011;39568;51.026;5.468;2023-08-31T00:38:11;3.47;;;3.20;;
53666;SDS011;39568;51.026;5.468;2023-08-31T00:40:38;4.95;;;3.92;;
53666;SDS011;39568;51.026;5.468;2023-08-31T00:43:10;5.63;;;3.63;;
53666;SDS011;39568;51.026;5.468;2023-08-31T00:45:38;3.92;;;3.53;;
53666;SDS011;39568;51.026;5.468;2023-08-31T00:48:07;3.83;;;3.30;;
53666;SDS011;39568;51.026;5.468;2023-08-31T00:50:34;4.72;;;4.10;;
53666;SDS011;39568;51.026;5.468;2023-08-31T00:53:02;5.15;;;3.58;;
53666;SDS011;39568;51.026;5.468;2023-08-31T00:55:31;8.25;;;3.65;;
53666;SDS011;39568;51.026;5.468;2023-08-31T00:57:58;8.63;;;3.40;;
53666;SDS011;39568;51.026;5.468;2023-08-31T01:00:26;3.75;;;3.15;;
53666;SDS011;39568;51.026;5.468;2023-08-31T01:03:05;6.00;;;3.08;;
53666;SDS011;39568;51.026;5.468;2023-08-31T01:05:40;4.25;;;3.85;;
53666;SDS011;39568;51.026;5.468;2023-08-31T01:08:15;4.75;;;3.58;;
53666;SDS011;39568;51.026;5.468;2023-08-31T01:11:02;8.50;;;3.72;;
53666;SDS011;39568;51.026;5.468;2023-08-31T01:13:34;10.88;;;4.20;;
53666;SDS011;39568;51.026;5.468;2023-08-31T01:16:03;3.95;;;3.53;;
53666;SDS011;39568;51.026;5.468;2023-08-31T01:18:34;5.85;;;3.88;;
53666;SDS011;39568;51.026;5.468;2023-08-31T01:21:06;6.07;;;3.58;;
53666;SDS011;39568;51.026;5.468;2023-08-31T01:26:24;3.75;;;3.45;;
53666;SDS011;39568;51.026;5.468;2023-08-31T01:28:52;3.28;;;3.08;;
53666;SDS011;39568;51.026;5.468;2023-08-31T01:31:19;6.50;;;3.60;;
53666;SDS011;39568;51.026;5.468;2023-08-31T01:33:46;5.57;;;4.05;;
53666;SDS011;39568;51.026;5.468;2023-08-31T01:36:15;4.78;;;4.18;;
53666;SDS011;39568;51.026;5.468;2023-08-31T01:38:48;6.78;;;4.35;;
53666;SDS011;39568;51.026;5.468;2023-08-31T01:41:20;4.10;;;3.65;;
53666;SDS011;39568;51.026;5.468;2023-08-31T01:43:49;6.07;;;3.97;;
53666;SDS011;39568;51.026;5.468;2023-08-31T01:46:18;5.07;;;3.85;;
53666;SDS011;39568;51.026;5.468;2023-08-31T01:48:46;5.18;;;3.97;;
53666;SDS011;39568;51.026;5.468;2023-08-31T01:51:13;5.43;;;3.88;;
53666;SDS011;39568;51.026;5.468;2023-08-31T01:53:39;5.32;;;4.00;;
53666;SDS011;39568;51.026;5.468;2023-08-31T01:56:06;6.43;;;4.57;;
53666;SDS011;39568;51.026;5.468;2023-08-31T01:58:34;8.45;;;3.70;;
53666;SDS011;39568;51.026;5.468;2023-08-31T02:01:01;9.88;;;4.30;;
53666;SDS011;39568;51.026;5.468;2023-08-31T02:03:28;4.40;;;3.53;;
53666;SDS011;39568;51.026;5.468;2023-08-31T02:05:55;4.45;;;3.30;;
53666;SDS011;39568;51.026;5.468;2023-08-31T02:08:22;7.70;;;3.70;;
53666;SDS011;39568;51.026;5.468;2023-08-31T02:10:49;3.40;;;3.10;;
53666;SDS011;39568;51.026;5.468;2023-08-31T02:13:16;4.85;;;3.13;;
53666;SDS011;39568;51.026;5.468;2023-08-31T02:15:44;8.57;;;3.47;;
53666;SDS011;39568;51.026;5.468;2023-08-31T02:18:11;13.30;;;3.67;;
53666;SDS011;39568;51.026;5.468;2023-08-31T02:20:38;4.28;;;3.88;;
53666;SDS011;39568;51.026;5.468;2023-08-31T02:23:04;4.50;;;4.10;;
53666;SDS011;39568;51.026;5.468;2023-08-31T02:25:31;8.02;;;4.00;;
53666;SDS011;39568;51.026;5.468;2023-08-31T02:27:58;4.53;;;4.13;;
53666;SDS011;39568;51.026;5.468;2023-08-31T02:30:25;6.45;;;3.63;;
53666;SDS011;39568;51.026;5.468;2023-08-31T02:32:53;6.07;;;4.18;;
53666;SDS011;39568;51.026;5.468;2023-08-31T02:35:20;4.25;;;3.92;;
53666;SDS011;39568;51.026;5.468;2023-08-31T02:37:47;4.82;;;4.38;;
53666;SDS011;39568;51.026;5.468;2023-08-31T02:40:14;5.75;;;5.05;;
53666;SDS011;39568;51.026;5.468;2023-08-31T02:42:41;7.00;;;5.35;;
53666;SDS011;39568;51.026;5.468;2023-08-31T02:45:08;4.82;;;4.53;;
53666;SDS011;39568;51.026;5.468;2023-08-31T02:47:35;5.10;;;4.70;;
53666;SDS011;39568;51.026;5.468;2023-08-31T02:50:04;5.65;;;5.22;;
53666;SDS011;39568;51.026;5.468;2023-08-31T02:52:31;6.22;;;5.82;;
53666;SDS011;39568;51.026;5.468;2023-08-31T02:54:58;6.72;;;6.30;;
53666;SDS011;39568;51.026;5.468;2023-08-31T02:57:25;7.20;;;6.50;;
53666;SDS011;39568;51.026;5.468;2023-08-31T02:59:52;6.88;;;6.28;;
53666;SDS011;39568;51.026;5.468;2023-08-31T03:02:19;12.55;;;7.32;;
53666;SDS011;39568;51.026;5.468;2023-08-31T03:04:47;7.45;;;5.90;;
53666;SDS011;39568;51.026;5.468;2023-08-31T03:07:16;7.53;;;6.65;;
53666;SDS011;39568;51.026;5.468;2023-08-31T03:09:43;12.23;;;7.13;;
53666;SDS011;39568;51.026;5.468;2023-08-31T03:12:14;6.90;;;6.40;;
53666;SDS011;39568;51.026;5.468;2023-08-31T03:14:41;8.02;;;7.05;;
53666;SDS011;39568;51.026;5.468;2023-08-31T03:17:07;6.55;;;6.15;;
53666;SDS011;39568;51.026;5.468;2023-08-31T03:19:34;12.88;;;7.53;;
53666;SDS011;39568;51.026;5.468;2023-08-31T03:22:01;11.93;;;8.43;;
53666;SDS011;39568;51.026;5.468;2023-08-31T03:24:29;8.02;;;7.10;;
53666;SDS011;39568;51.026;5.468;2023-08-31T03:26:56;13.57;;;8.25;;
53666;SDS011;39568;51.026;5.468;2023-08-31T03:29:22;6.88;;;6.30;;
53666;SDS011;39568;51.026;5.468;2023-08-31T03:31:49;16.23;;;8.05;;
53666;SDS011;39568;51.026;5.468;2023-08-31T03:34:16;10.52;;;7.38;;
53666;SDS011;39568;51.026;5.468;2023-08-31T03:36:43;10.88;;;8.90;;
53666;SDS011;39568;51.026;5.468;2023-08-31T03:39:09;15.48;;;8.95;;
53666;SDS011;39568;51.026;5.468;2023-08-31T03:41:38;14.98;;;8.77;;
53666;SDS011;39568;51.026;5.468;2023-08-31T03:44:04;8.98;;;8.13;;
53666;SDS011;39568;51.026;5.468;2023-08-31T03:46:31;14.98;;;8.77;;
53666;SDS011;39568;51.026;5.468;2023-08-31T03:48:58;11.85;;;8.27;;
53666;SDS011;39568;51.026;5.468;2023-08-31T03:51:24;17.08;;;9.10;;
53666;SDS011;39568;51.026;5.468;2023-08-31T03:53:51;15.40;;;8.60;;
53666;SDS011;39568;51.026;5.468;2023-08-31T03:56:20;10.82;;;9.23;;
53666;SDS011;39568;51.026;5.468;2023-08-31T03:58:48;10.98;;;9.95;;
53666;SDS011;39568;51.026;5.468;2023-08-31T04:01:15;13.20;;;9.68;;
53666;SDS011;39568;51.026;5.468;2023-08-31T04:03:42;14.57;;;10.63;;
53666;SDS011;39568;51.026;5.468;2023-08-31T04:06:09;14.13;;;10.20;;
53666;SDS011;39568;51.026;5.468;2023-08-31T04:08:36;14.63;;;10.90;;
53666;SDS011;39568;51.026;5.468;2023-08-31T04:11:03;23.02;;;12.60;;
53666;SDS011;39568;51.026;5.468;2023-08-31T04:13:30;18.00;;;12.00;;
53666;SDS011;39568;51.026;5.468;2023-08-31T04:15:58;23.33;;;11.77;;
53666;SDS011;39568;51.026;5.468;2023-08-31T04:18:24;23.85;;;12.55;;
53666;SDS011;39568;51.026;5.468;2023-08-31T04:20:52;13.98;;;12.45;;
53666;SDS011;39568;51.026;5.468;2023-08-31T04:23:19;22.58;;;12.85;;
53666;SDS011;39568;51.026;5.468;2023-08-31T04:25:46;19.17;;;14.00;;
53666;SDS011;39568;51.026;5.468;2023-08-31T04:28:15;20.13;;;14.40;;
53666;SDS011;39568;51.026;5.468;2023-08-31T04:30:42;15.10;;;13.55;;
53666;SDS011;39568;51.026;5.468;2023-08-31T04:33:11;20.33;;;13.00;;
53666;SDS011;39568;51.026;5.468;2023-08-31T04:35:38;16.75;;;14.98;;
53666;SDS011;39568;51.026;5.468;2023-08-31T04:38:04;24.83;;;14.27;;
53666;SDS011;39568;51.026;5.468;2023-08-31T04:40:31;33.63;;;14.88;;
53666;SDS011;39568;51.026;5.468;2023-08-31T04:42:58;23.52;;;15.27;;
53666;SDS011;39568;51.026;5.468;2023-08-31T04:45:25;21.20;;;14.38;;
53666;SDS011;39568;51.026;5.468;2023-08-31T04:47:52;24.17;;;15.00;;
53666;SDS011;39568;51.026;5.468;2023-08-31T04:50:21;26.95;;;14.98;;
53666;SDS011;39568;51.026;5.468;2023-08-31T04:52:48;20.17;;;13.68;;
53666;SDS011;39568;51.026;5.468;2023-08-31T04:55:15;21.73;;;15.77;;
53666;SDS011;39568;51.026;5.468;2023-08-31T04:57:41;24.77;;;14.65;;
53666;SDS011;39568;51.026;5.468;2023-08-31T05:00:08;27.45;;;16.27;;
53666;SDS011;39568;51.026;5.468;2023-08-31T05:02:36;28.35;;;16.83;;
53666;SDS011;39568;51.026;5.468;2023-08-31T05:05:03;19.92;;;15.75;;
53666;SDS011;39568;51.026;5.468;2023-08-31T05:07:32;23.58;;;15.25;;
53666;SDS011;39568;51.026;5.468;2023-08-31T05:09:59;34.80;;;16.08;;
53666;SDS011;39568;51.026;5.468;2023-08-31T05:12:26;24.70;;;15.73;;
53666;SDS011;39568;51.026;5.468;2023-08-31T05:14:52;25.77;;;16.83;;
53666;SDS011;39568;51.026;5.468;2023-08-31T05:17:19;29.27;;;16.33;;
53666;SDS011;39568;51.026;5.468;2023-08-31T05:19:46;27.05;;;16.35;;
53666;SDS011;39568;51.026;5.468;2023-08-31T05:22:13;26.77;;;15.73;;
53666;SDS011;39568;51.026;5.468;2023-08-31T05:24:41;27.00;;;15.25;;
53666;SDS011;39568;51.026;5.468;2023-08-31T05:27:08;26.95;;;15.07;;
53666;SDS011;39568;51.026;5.468;2023-08-31T05:29:35;38.55;;;14.93;;
53666;SDS011;39568;51.026;5.468;2023-08-31T05:32:01;29.95;;;14.50;;
53666;SDS011;39568;51.026;5.468;2023-08-31T05:34:28;28.13;;;13.90;;
53666;SDS011;39568;51.026;5.468;2023-08-31T05:36:57;31.38;;;15.07;;
53666;SDS011;39568;51.026;5.468;2023-08-31T05:39:24;29.70;;;14.15;;
53666;SDS011;39568;51.026;5.468;2023-08-31T05:41:52;26.33;;;13.85;;
53666;SDS011;39568;51.026;5.468;2023-08-31T05:44:19;26.55;;;13.38;;
53666;SDS011;39568;51.026;5.468;2023-08-31T05:46:46;28.67;;;12.90;;
53666;SDS011;39568;51.026;5.468;2023-08-31T05:49:13;21.38;;;12.57;;
53666;SDS011;39568;51.026;5.468;2023-08-31T05:51:40;21.38;;;13.35;;
53666;SDS011;39568;51.026;5.468;2023-08-31T05:54:06;22.55;;;12.80;;
53666;SDS011;39568;51.026;5.468;2023-08-31T05:56:36;20.08;;;10.95;;
53666;SDS011;39568;51.026;5.468;2023-08-31T05:59:06;12.57;;;10.35;;
53666;SDS011;39568;51.026;5.468;2023-08-31T06:01:33;20.27;;;10.35;;
53666;SDS011;39568;51.026;5.468;2023-08-31T06:04:01;12.40;;;9.50;;
53666;SDS011;39568;51.026;5.468;2023-08-31T06:06:28;24.00;;;9.32;;
53666;SDS011;39568;51.026;5.468;2023-08-31T06:08:55;25.70;;;8.57;;
53666;SDS011;39568;51.026;5.468;2023-08-31T06:11:23;15.25;;;7.72;;
53666;SDS011;39568;51.026;5.468;2023-08-31T06:13:49;14.63;;;7.88;;
53666;SDS011;39568;51.026;5.468;2023-08-31T06:16:18;16.73;;;8.43;;
53666;SDS011;39568;51.026;5.468;2023-08-31T06:18:44;12.00;;;7.30;;
53666;SDS011;39568;51.026;5.468;2023-08-31T06:21:11;9.75;;;7.47;;
53666;SDS011;39568;51.026;5.468;2023-08-31T06:23:38;12.25;;;7.25;;
53666;SDS011;39568;51.026;5.468;2023-08-31T06:26:05;16.33;;;6.65;;
53666;SDS011;39568;51.026;5.468;2023-08-31T06:28:31;9.05;;;5.40;;
53666;SDS011;39568;51.026;5.468;2023-08-31T06:30:59;6.47;;;4.60;;
53666;SDS011;39568;51.026;5.468;2023-08-31T06:33:27;18.10;;;5.60;;
53666;SDS011;39568;51.026;5.468;2023-08-31T06:35:54;11.63;;;5.57;;
53666;SDS011;39568;51.026;5.468;2023-08-31T06:38:21;6.72;;;5.00;;
53666;SDS011;39568;51.026;5.468;2023-08-31T06:40:48;9.15;;;5.18;;
53666;SDS011;39568;51.026;5.468;2023-08-31T06:43:14;12.50;;;5.18;;
53666;SDS011;39568;51.026;5.468;2023-08-31T06:45:41;5.18;;;4.45;;
53666;SDS011;39568;51.026;5.468;2023-08-31T06:48:08;3.92;;;3.63;;
53666;SDS011;39568;51.026;5.468;2023-08-31T06:50:36;7.95;;;3.92;;
53666;SDS011;39568;51.026;5.468;2023-08-31T06:53:03;5.60;;;3.50;;
53666;SDS011;39568;51.026;5.468;2023-08-31T06:55:30;6.93;;;3.65;;
53666;SDS011;39568;51.026;5.468;2023-08-31T06:57:59;6.88;;;4.03;;
53666;SDS011;39568;51.026;5.468;2023-08-31T07:00:25;10.15;;;3.80;;
53666;SDS011;39568;51.026;5.468;2023-08-31T07:02:52;5.00;;;3.15;;
53666;SDS011;39568;51.026;5.468;2023-08-31T07:05:19;7.85;;;3.20;;
53666;SDS011;39568;51.026;5.468;2023-08-31T07:07:53;8.90;;;2.80;;
53666;SDS011;39568;51.026;5.468;2023-08-31T07:10:20;3.75;;;3.30;;
53666;SDS011;39568;51.026;5.468;2023-08-31T07:12:47;4.15;;;3.30;;
53666;SDS011;39568;51.026;5.468;2023-08-31T07:15:14;8.98;;;2.65;;
53666;SDS011;39568;51.026;5.468;2023-08-31T07:17:41;5.90;;;2.67;;
53666;SDS011;39568;51.026;5.468;2023-08-31T07:20:08;7.60;;;3.17;;
53666;SDS011;39568;51.026;5.468;2023-08-31T07:22:37;4.60;;;2.33;;
53666;SDS011;39568;51.026;5.468;2023-08-31T07:25:07;4.43;;;2.55;;
53666;SDS011;39568;51.026;5.468;2023-08-31T07:27:34;11.82;;;3.88;;
53666;SDS011;39568;51.026;5.468;2023-08-31T07:30:01;8.82;;;3.33;;
53666;SDS011;39568;51.026;5.468;2023-08-31T07:32:29;11.20;;;3.50;;
53666;SDS011;39568;51.026;5.468;2023-08-31T07:34:56;6.43;;;3.05;;
53666;SDS011;39568;51.026;5.468;2023-08-31T07:37:23;16.88;;;4.65;;
53666;SDS011;39568;51.026;5.468;2023-08-31T07:39:49;13.38;;;4.45;;
53666;SDS011;39568;51.026;5.468;2023-08-31T07:42:18;11.85;;;3.83;;
53666;SDS011;39568;51.026;5.468;2023-08-31T07:44:45;9.10;;;3.47;;
53666;SDS011;39568;51.026;5.468;2023-08-31T07:47:12;5.47;;;3.58;;
53666;SDS011;39568;51.026;5.468;2023-08-31T07:49:39;8.45;;;3.45;;
53666;SDS011;39568;51.026;5.468;2023-08-31T07:52:05;11.32;;;3.80;;
53666;SDS011;39568;51.026;5.468;2023-08-31T07:54:32;10.13;;;3.78;;
53666;SDS011;39568;51.026;5.468;2023-08-31T07:56:59;8.73;;;4.25;;
53666;SDS011;39568;51.026;5.468;2023-08-31T07:59:27;11.98;;;3.58;;
53666;SDS011;39568;51.026;5.468;2023-08-31T08:01:54;15.45;;;4.55;;
53666;SDS011;39568;51.026;5.468;2023-08-31T08:04:21;8.27;;;3.70;;
53666;SDS011;39568;51.026;5.468;2023-08-31T08:06:49;11.45;;;3.38;;
53666;SDS011;39568;51.026;5.468;2023-08-31T08:09:15;7.18;;;3.38;;
53666;SDS011;39568;51.026;5.468;2023-08-31T08:11:42;8.52;;;3.85;;
53666;SDS011;39568;51.026;5.468;2023-08-31T08:14:09;7.22;;;3.70;;
53666;SDS011;39568;51.026;5.468;2023-08-31T08:16:38;13.63;;;3.58;;
53666;SDS011;39568;51.026;5.468;2023-08-31T08:19:05;5.03;;;2.90;;
53666;SDS011;39568;51.026;5.468;2023-08-31T08:21:32;9.77;;;4.32;;
53666;SDS011;39568;51.026;5.468;2023-08-31T08:23:59;7.22;;;2.97;;
53666;SDS011;39568;51.026;5.468;2023-08-31T08:26:26;10.40;;;3.10;;
53666;SDS011;39568;51.026;5.468;2023-08-31T08:28:53;8.45;;;3.03;;
53666;SDS011;39568;51.026;5.468;2023-08-31T08:31:20;9.30;;;3.75;;
53666;SDS011;39568;51.026;5.468;2023-08-31T08:33:48;6.90;;;3.00;;
53666;SDS011;39568;51.026;5.468;2023-08-31T08:36:14;6.80;;;2.83;;
53666;SDS011;39568;51.026;5.468;2023-08-31T08:38:41;9.57;;;3.30;;
53666;SDS011;39568;51.026;5.468;2023-08-31T08:41:08;7.40;;;2.42;;
53666;SDS011;39568;51.026;5.468;2023-08-31T08:43:36;6.55;;;2.40;;
53666;SDS011;39568;51.026;5.468;2023-08-31T08:46:06;10.07;;;3.42;;
53666;SDS011;39568;51.026;5.468;2023-08-31T08:48:33;8.27;;;3.60;;
53666;SDS011;39568;51.026;5.468;2023-08-31T08:51:03;7.38;;;3.90;;
53666;SDS011;39568;51.026;5.468;2023-08-31T08:53:30;9.77;;;3.53;;
53666;SDS011;39568;51.026;5.468;2023-08-31T08:55:57;7.90;;;4.00;;
53666;SDS011;39568;51.026;5.468;2023-08-31T08:58:24;13.18;;;3.78;;
53666;SDS011;39568;51.026;5.468;2023-08-31T09:00:52;5.90;;;2.92;;
53666;SDS011;39568;51.026;5.468;2023-08-31T09:03:22;8.87;;;4.13;;
53666;SDS011;39568;51.026;5.468;2023-08-31T09:05:49;12.13;;;3.78;;
53666;SDS011;39568;51.026;5.468;2023-08-31T09:08:19;12.73;;;3.58;;
53666;SDS011;39568;51.026;5.468;2023-08-31T09:10:52;5.10;;;2.63;;
53666;SDS011;39568;51.026;5.468;2023-08-31T09:13:21;10.52;;;4.45;;
53666;SDS011;39568;51.026;5.468;2023-08-31T09:15:52;14.38;;;3.80;;
53666;SDS011;39568;51.026;5.468;2023-08-31T09:18:22;13.52;;;3.97;;
53666;SDS011;39568;51.026;5.468;2023-08-31T09:20:50;9.40;;;2.83;;
53666;SDS011;39568;51.026;5.468;2023-08-31T09:23:19;13.75;;;3.58;;
53666;SDS011;39568;51.026;5.468;2023-08-31T09:25:47;6.78;;;3.15;;
53666;SDS011;39568;51.026;5.468;2023-08-31T09:28:15;7.88;;;4.00;;
53666;SDS011;39568;51.026;5.468;2023-08-31T09:30:42;4.13;;;3.00;;
53666;SDS011;39568;51.026;5.468;2023-08-31T09:33:14;2.88;;;2.20;;
53666;SDS011;39568;51.026;5.468;2023-08-31T09:35:46;5.25;;;2.85;;
53666;SDS011;39568;51.026;5.468;2023-08-31T09:38:15;9.07;;;2.55;;
53666;SDS011;39568;51.026;5.468;2023-08-31T09:40:43;14.57;;;2.63;;
53666;SDS011;39568;51.026;5.468;2023-08-31T09:43:10;7.72;;;2.92;;
53666;SDS011;39568;51.026;5.468;2023-08-31T09:45:37;8.70;;;3.22;;
53666;SDS011;39568;51.026;5.468;2023-08-31T09:48:04;7.03;;;3.22;;
53666;SDS011;39568;51.026;5.468;2023-08-31T09:50:32;15.75;;;2.78;;
53666;SDS011;39568;51.026;5.468;2023-08-31T09:53:01;4.68;;;2.53;;
53666;SDS011;39568;51.026;5.468;2023-08-31T09:55:29;6.88;;;2.53;;
53666;SDS011;39568;51.026;5.468;2023-08-31T09:57:58;9.98;;;4.10;;
53666;SDS011;39568;51.026;5.468;2023-08-31T10:00:26;12.43;;;4.00;;
53666;SDS011;39568;51.026;5.468;2023-08-31T10:02:56;11.40;;;2.67;;
53666;SDS011;39568;51.026;5.468;2023-08-31T10:05:24;9.80;;;2.67;;
53666;SDS011;39568;51.026;5.468;2023-08-31T10:07:51;11.35;;;2.88;;
53666;SDS011;39568;51.026;5.468;2023-08-31T10:10:18;8.90;;;3.08;;
53666;SDS011;39568;51.026;5.468;2023-08-31T10:12:47;9.20;;;2.53;;
53666;SDS011;39568;51.026;5.468;2023-08-31T10:15:16;4.00;;;1.73;;
53666;SDS011;39568;51.026;5.468;2023-08-31T10:17:44;5.28;;;3.22;;
53666;SDS011;39568;51.026;5.468;2023-08-31T10:20:11;9.80;;;2.65;;
53666;SDS011;39568;51.026;5.468;2023-08-31T10:22:39;12.30;;;3.08;;
53666;SDS011;39568;51.026;5.468;2023-08-31T10:25:07;17.23;;;2.78;;
53666;SDS011;39568;51.026;5.468;2023-08-31T10:27:37;10.82;;;2.25;;
53666;SDS011;39568;51.026;5.468;2023-08-31T10:30:22;5.93;;;2.35;;
53666;SDS011;39568;51.026;5.468;2023-08-31T10:35:50;7.85;;;2.72;;
53666;SDS011;39568;51.026;5.468;2023-08-31T10:38:23;5.07;;;2.88;;
53666;SDS011;39568;51.026;5.468;2023-08-31T10:41:17;4.25;;;2.92;;
53666;SDS011;39568;51.026;5.468;2023-08-31T10:43:46;4.13;;;2.50;;
53666;SDS011;39568;51.026;5.468;2023-08-31T10:46:17;15.43;;;3.03;;
53666;SDS011;39568;51.026;5.468;2023-08-31T10:48:54;5.50;;;2.58;;
53666;SDS011;39568;51.026;5.468;2023-08-31T10:51:23;7.72;;;2.15;;
53666;SDS011;39568;51.026;5.468;2023-08-31T10:56:36;5.78;;;1.85;;
53666;SDS011;39568;51.026;5.468;2023-08-31T10:59:18;10.60;;;3.88;;
53666;SDS011;39568;51.026;5.468;2023-08-31T11:01:53;7.47;;;3.10;;
53666;SDS011;39568;51.026;5.468;2023-08-31T11:04:21;3.20;;;2.55;;
53666;SDS011;39568;51.026;5.468;2023-08-31T11:06:48;5.53;;;2.28;;
53666;SDS011;39568;51.026;5.468;2023-08-31T11:09:19;1.60;;;1.50;;
53666;SDS011;39568;51.026;5.468;2023-08-31T11:11:47;5.10;;;2.47;;
53666;SDS011;39568;51.026;5.468;2023-08-31T11:14:14;7.70;;;2.33;;
53666;SDS011;39568;51.026;5.468;2023-08-31T11:16:42;6.68;;;1.85;;
53666;SDS011;39568;51.026;5.468;2023-08-31T11:19:11;4.45;;;1.98;;
53666;SDS011;39568;51.026;5.468;2023-08-31T11:21:38;3.15;;;1.58;;
53666;SDS011;39568;51.026;5.468;2023-08-31T11:24:05;5.68;;;2.20;;
53666;SDS011;39568;51.026;5.468;2023-08-31T11:26:33;4.88;;;1.83;;
53666;SDS011;39568;51.026;5.468;2023-08-31T11:29:00;12.50;;;1.25;;
53666;SDS011;39568;51.026;5.468;2023-08-31T11:31:27;1.80;;;1.38;;
53666;SDS011;39568;51.026;5.468;2023-08-31T11:33:54;2.05;;;1.58;;
53666;SDS011;39568;51.026;5.468;2023-08-31T11:36:23;4.03;;;1.27;;
53666;SDS011;39568;51.026;5.468;2023-08-31T11:38:51;3.08;;;1.23;;
53666;SDS011;39568;51.026;5.468;2023-08-31T11:41:18;6.40;;;1.08;;
53666;SDS011;39568;51.026;5.468;2023-08-31T11:43:46;3.30;;;0.95;;
53666;SDS011;39568;51.026;5.468;2023-08-31T11:46:13;3.92;;;1.30;;
53666;SDS011;39568;51.026;5.468;2023-08-31T11:48:41;4.32;;;1.50;;
53666;SDS011;39568;51.026;5.468;2023-08-31T11:51:08;7.43;;;1.23;;
53666;SDS011;39568;51.026;5.468;2023-08-31T11:53:36;3.90;;;1.23;;
53666;SDS011;39568;51.026;5.468;2023-08-31T11:56:04;3.22;;;0.70;;
53666;SDS011;39568;51.026;5.468;2023-08-31T11:58:31;2.50;;;1.33;;
53666;SDS011;39568;51.026;5.468;2023-08-31T12:00:58;3.33;;;1.27;;
53666;SDS011;39568;51.026;5.468;2023-08-31T12:03:25;6.28;;;0.88;;
53666;SDS011;39568;51.026;5.468;2023-08-31T12:05:53;5.78;;;0.93;;
53666;SDS011;39568;51.026;5.468;2023-08-31T12:08:24;3.60;;;0.70;;
53666;SDS011;39568;51.026;5.468;2023-08-31T12:10:53;4.32;;;1.10;;
53666;SDS011;39568;51.026;5.468;2023-08-31T12:13:21;1.05;;;0.93;;
53666;SDS011;39568;51.026;5.468;2023-08-31T12:15:52;5.95;;;0.93;;
53666;SDS011;39568;51.026;5.468;2023-08-31T12:18:19;2.50;;;1.33;;
53666;SDS011;39568;51.026;5.468;2023-08-31T12:20:46;4.70;;;1.80;;
53666;SDS011;39568;51.026;5.468;2023-08-31T12:23:16;3.83;;;1.63;;
53666;SDS011;39568;51.026;5.468;2023-08-31T12:25:46;2.53;;;1.20;;
53666;SDS011;39568;51.026;5.468;2023-08-31T12:28:15;5.72;;;1.77;;
53666;SDS011;39568;51.026;5.468;2023-08-31T12:30:45;3.28;;;1.52;;
53666;SDS011;39568;51.026;5.468;2023-08-31T12:33:13;14.75;;;2.70;;
53666;SDS011;39568;51.026;5.468;2023-08-31T12:35:40;1.58;;;1.25;;
53666;SDS011;39568;51.026;5.468;2023-08-31T12:38:07;4.38;;;1.38;;
53666;SDS011;39568;51.026;5.468;2023-08-31T12:40:34;5.55;;;1.42;;
53666;SDS011;39568;51.026;5.468;2023-08-31T12:43:01;7.13;;;1.42;;
53666;SDS011;39568;51.026;5.468;2023-08-31T12:45:29;7.60;;;1.63;;
53666;SDS011;39568;51.026;5.468;2023-08-31T12:47:56;4.10;;;1.73;;
53666;SDS011;39568;51.026;5.468;2023-08-31T12:50:23;7.00;;;1.85;;
53666;SDS011;39568;51.026;5.468;2023-08-31T12:52:50;1.95;;;1.10;;
53666;SDS011;39568;51.026;5.468;2023-08-31T12:55:17;3.13;;;1.35;;
53666;SDS011;39568;51.026;5.468;2023-08-31T12:57:43;1.88;;;1.60;;
53666;SDS011;39568;51.026;5.468;2023-08-31T13:00:11;1.48;;;1.35;;
53666;SDS011;39568;51.026;5.468;2023-08-31T13:02:40;2.42;;;1.02;;
53666;SDS011;39568;51.026;5.468;2023-08-31T13:05:07;7.15;;;1.88;;
53666;SDS011;39568;51.026;5.468;2023-08-31T13:07:35;1.00;;;0.93;;
53666;SDS011;39568;51.026;5.468;2023-08-31T13:10:03;7.13;;;1.75;;
53666;SDS011;39568;51.026;5.468;2023-08-31T13:12:31;6.88;;;1.90;;
53666;SDS011;39568;51.026;5.468;2023-08-31T13:14:58;12.40;;;1.65;;
53666;SDS011;39568;51.026;5.468;2023-08-31T13:17:25;7.20;;;2.15;;
53666;SDS011;39568;51.026;5.468;2023-08-31T13:19:54;4.38;;;2.33;;
53666;SDS011;39568;51.026;5.468;2023-08-31T13:22:22;3.70;;;1.65;;
53666;SDS011;39568;51.026;5.468;2023-08-31T13:24:49;2.72;;;1.30;;
53666;SDS011;39568;51.026;5.468;2023-08-31T13:27:16;7.10;;;1.55;;
53666;SDS011;39568;51.026;5.468;2023-08-31T13:29:43;5.10;;;1.35;;
53666;SDS011;39568;51.026;5.468;2023-08-31T13:32:10;3.53;;;1.10;;
53666;SDS011;39568;51.026;5.468;2023-08-31T13:34:37;4.72;;;1.58;;
53666;SDS011;39568;51.026;5.468;2023-08-31T13:37:05;5.53;;;1.52;;
53666;SDS011;39568;51.026;5.468;2023-08-31T13:39:33;3.65;;;1.55;;
53666;SDS011;39568;51.026;5.468;2023-08-31T13:42:01;4.32;;;1.77;;
53666;SDS011;39568;51.026;5.468;2023-08-31T13:44:29;3.67;;;1.33;;
53666;SDS011;39568;51.026;5.468;2023-08-31T13:46:56;3.80;;;1.50;;
53666;SDS011;39568;51.026;5.468;2023-08-31T13:49:23;6.75;;;1.50;;
53666;SDS011;39568;51.026;5.468;2023-08-31T13:51:50;5.05;;;1.40;;
53666;SDS011;39568;51.026;5.468;2023-08-31T13:54:18;6.82;;;1.88;;
53666;SDS011;39568;51.026;5.468;2023-08-31T13:56:45;7.45;;;2.25;;
53666;SDS011;39568;51.026;5.468;2023-08-31T13:59:12;3.03;;;1.45;;
53666;SDS011;39568;51.026;5.468;2023-08-31T14:01:38;7.65;;;1.50;;
53666;SDS011;39568;51.026;5.468;2023-08-31T14:04:05;2.85;;;1.10;;
53666;SDS011;39568;51.026;5.468;2023-08-31T14:06:32;4.35;;;1.50;;
53666;SDS011;39568;51.026;5.468;2023-08-31T14:08:59;3.00;;;1.10;;
53666;SDS011;39568;51.026;5.468;2023-08-31T14:11:27;4.47;;;1.48;;
53666;SDS011;39568;51.026;5.468;2023-08-31T14:14:00;7.15;;;1.73;;
53666;SDS011;39568;51.026;5.468;2023-08-31T14:16:30;8.25;;;1.60;;
53666;SDS011;39568;51.026;5.468;2023-08-31T14:18:57;5.78;;;1.50;;
53666;SDS011;39568;51.026;5.468;2023-08-31T14:21:24;6.25;;;1.55;;
53666;SDS011;39568;51.026;5.468;2023-08-31T14:23:50;1.80;;;1.20;;
53666;SDS011;39568;51.026;5.468;2023-08-31T14:26:21;3.28;;;1.48;;
53666;SDS011;39568;51.026;5.468;2023-08-31T14:28:50;1.70;;;0.82;;
53666;SDS011;39568;51.026;5.468;2023-08-31T14:31:17;5.47;;;1.25;;
53666;SDS011;39568;51.026;5.468;2023-08-31T14:33:44;4.65;;;1.65;;
53666;SDS011;39568;51.026;5.468;2023-08-31T14:36:11;5.65;;;1.50;;
53666;SDS011;39568;51.026;5.468;2023-08-31T14:38:40;4.60;;;1.60;;
53666;SDS011;39568;51.026;5.468;2023-08-31T14:41:06;3.65;;;1.60;;
53666;SDS011;39568;51.026;5.468;2023-08-31T14:43:33;8.98;;;2.05;;
53666;SDS011;39568;51.026;5.468;2023-08-31T14:46:02;4.13;;;1.35;;
53666;SDS011;39568;51.026;5.468;2023-08-31T14:48:29;2.00;;;1.45;;
53666;SDS011;39568;51.026;5.468;2023-08-31T14:50:57;1.98;;;1.27;;
53666;SDS011;39568;51.026;5.468;2023-08-31T14:53:25;2.38;;;1.60;;